Saturday, December 20, 2014, 11:42 PM EST

KPTW, Pottstown Limerick Airport

Location: Royersford, PA, United States Lat: 40.233
Local Time: 11:42 PM EST ( 4:42 GMT) Lon: -75.55
Time Zone: US/Eastern Elev: 291 ft

Show me the last for .
Show Decoded

2014-12-20 22:54 METAR KPTW 210354Z AUTO 00000KT 10SM OVC030 M01/M06 A3031 RMK AO2 SLP263
                 T10061056 =
2014-12-20 22:26 METAR KPTW 210326Z AUTO 00000KT 10SM OVC030 00/M06 A3030 RMK AO2 T00001061 =
2014-12-20 21:54 METAR KPTW 210254Z AUTO 33003KT 10SM OVC029 M01/M06 A3029 RMK AO2 SLP259
                 T10061056 50000 =
2014-12-20 20:54 METAR KPTW 210154Z AUTO 00000KT 10SM OVC030 00/M06 A3029 RMK AO2 SLP258
                 T00001061 =
2014-12-20 19:54 METAR KPTW 210054Z AUTO 33004KT 10SM OVC031 00/M06 A3030 RMK AO2 SLP259
                 T00001061 =
2014-12-20 18:54 METAR KPTW 202354Z AUTO 00000KT 10SM OVC031 00/M06 A3029 RMK AO2 SLP258
                 T00001061 10011 20000 51010 =
2014-12-20 17:54 METAR KPTW 202254Z AUTO 00000KT 10SM OVC031 00/M06 A3028 RMK AO2 SLP255
                 T00001061 =
2014-12-20 16:54 METAR KPTW 202154Z AUTO 00000KT 10SM OVC031 01/M06 A3028 RMK AO2 SLP254
                 T00061061 =
2014-12-20 15:54 METAR KPTW 202054Z AUTO 00000KT 10SM OVC031 01/M06 A3026 RMK AO2 SLP248
                 T00061061 55002 =
2014-12-20 14:54 METAR KPTW 201954Z AUTO 35003KT 10SM OVC030 01/M06 A3026 RMK AO2 SLP247
                 T00061061 =
2014-12-20 13:54 METAR KPTW 201854Z AUTO 00000KT 10SM OVC031 01/M06 A3026 RMK AO2 SLP248
                 T00061061 =
2014-12-20 13:45 METAR KPTW 201845Z AUTO 00000KT 10SM OVC031 01/M06 A3026 RMK AO2 T00061061 =
2014-12-20 13:08 METAR KPTW 201808Z AUTO 00000KT 10SM OVC029 01/M06 A3027 RMK AO2 T00061061 =
2014-12-20 12:54 METAR KPTW 201754Z AUTO VRB03KT 10SM OVC030 01/M06 A3027 RMK AO2 SLP250
                 T00061061 10011 21011 56014 =
2014-12-20 11:54 METAR KPTW 201654Z AUTO 36006KT 10SM OVC029 01/M06 A3027 RMK AO2 SLP251
                 T00061061 =
2014-12-20 10:54 METAR KPTW 201554Z AUTO 34005KT 10SM OVC029 00/M06 A3030 RMK AO2 SLP261
                 T00001061 =
2014-12-20 09:54 METAR KPTW 201454Z AUTO 36005KT 10SM OVC029 00/M06 A3031 RMK AO2 SLP264
                 T00001061 51018 =
2014-12-20 08:54 METAR KPTW 201354Z AUTO 36003KT 10SM OVC028 M01/M06 A3030 RMK AO2 SLP262
                 T10061061 =
2014-12-20 07:54 METAR KPTW 201254Z AUTO 36003KT 10SM OVC028 M01/M07 A3028 RMK AO2 SLP255
                 T10061067 =
2014-12-20 06:54 METAR KPTW 201154Z AUTO 01006KT 10SM OVC029 M01/M07 A3026 RMK AO2 SLP246
                 T10111067 10006 21011 51008 =
2014-12-20 05:54 METAR KPTW 201054Z AUTO 01007KT 10SM OVC027 M01/M07 A3026 RMK AO2 SLP246
                 T10061067 =
2014-12-20 04:54 METAR KPTW 200954Z AUTO 01004KT 10SM OVC027 M01/M06 A3025 RMK AO2 SLP244
                 T10061061 =
2014-12-20 03:54 METAR KPTW 200854Z AUTO 35006KT 10SM OVC027 M01/M06 A3023 RMK AO2 SLP239
                 T10061061 51015 =
2014-12-20 02:54 METAR KPTW 200754Z AUTO 36005KT 10SM OVC029 00/M06 A3023 RMK AO2 SLP235
                 T00001061 =
2014-12-20 02:44 METAR KPTW 200744Z AUTO 35005KT 10SM OVC029 00/M06 A3022 RMK AO2 T00001061 =
2014-12-20 01:54 METAR KPTW 200654Z AUTO 36009KT 10SM OVC030 00/M06 A3020 RMK AO2 SLP228
                 T00001061 =
2014-12-20 00:54 METAR KPTW 200554Z AUTO 34005KT 10SM OVC032 01/M06 A3019 RMK AO2 SLP224
                 T00061061 10006 20000 58003 =
2014-12-19 23:54 METAR KPTW 200454Z AUTO 33005KT 10SM OVC033 01/M06 A3020 RMK AO2 SLP227
                 T00061061 400500000 =

Support USWX by starting your Amazon purchase here.